KLEX METAR and TAF | Updated Today

KLEX METAR

Blue Grass Airport

Observation time: 13 min. ago

KLEX 301954Z 27012G21KT 10SM CLR 06/M07 A3018 RMK AO2 SLP220 T00561067

Need help? Read our tutorial on how to read METARs or read the parsed version below.

Blue Grass Airport (KLEX) METAR

  • Weather conditions on Wed, 30 Nov 2022 19:54:00 +0000 (13 min. ago):
  • Present conditions: Dry
  • Clouds: Clear skies
  • Visibility: 16093 meters
  • Wind: 270 degrees at 12 knots
  • Temperature: 6 celsius
  • Dew point: -7 celsius
  • Pressure: 30.18 inHg
  • Remarks: AO2 SLP220 T00561067


Useful to know...

KLEX TAF

Blue Grass Airport

KLEX 301727Z 3018/0118 28012G22KT P6SM SKC FM302300 27008KT P6SM SKC FM011300 VRB05KT P6SM SCT250
Observation time: 2:40 hr. ago
Need help? Read our tutorial on how to read TAFs or read the parsed version below.

Parsed version of TAF for Blue Grass Airport (KLEX)

  • From 30 November at 18:00 UTC, to day 01 of the month at 18:00 UTC
  • Clouds: No significant changes expected
  • Wind: 280 degrees at 12
  • From day 30 of the month at 23:00 UTC
  • Clouds: No significant changes expected
  • Wind: 270 degrees at 8
  • From day 1 of the month at 13:00 UTC
  • Clouds: Scattered at 7620 meters
  • Wind: Variable at 5

Airports near KLEX

KFFT Weather
Region: Frankfort

Capital City Airport

Not found in our database